Terminal Aerodrome Forecast
Issued by NWS Atlanta, GA

Home | Current Version | Previous Version | Text Only | Print | Product List | Glossary On
Versions: 1 2 3 4 5 6 7 8 9 10 11 12 13 14 15 16 17 18 19 20 21 22 23 24 25 26 27 28 29 30 31 32 33 34 35 36 37 38 39 40 41 42 43 44
000
FTUS42 KFFC 080528
TAFATL
TAF
KATL 080528Z 0806/0912 31008KT P6SM FEW015
      TEMPO 0806/0810 BKN015
     FM081000 31010KT P6SM SCT025 BKN070
     FM081400 32012G22KT P6SM SCT050 BKN100
     FM081700 33015G25KT P6SM BKN120
     FM082300 34012KT P6SM SCT150 BKN250
     FM090900 33010KT P6SM SKC=

USA.gov is the U.S. government's official web portal to all federal, state and local government web resources and services.